Nago, Japan
Current Conditions -  °F | °C
As of 12:58 AM on Monday 24 Nov 2014 (Local Time) from RODN Reporting Station
Clear Clear  
Wind Chill: 69°   Ceiling: Unl
Heat Index: 69°   Visibility: 10mi
Dew Point: 61°   Wind: 8mph
Humidity: 75%   Direction: 80°E
Pressure: 30.1"   Gusts: NA
Location:  26.59°N, 127.99°E
Report Text: RODN 231558Z AUTO 08007KT 10SM CLR 21/16 A3010 RMK AO2 SLP199 T02080163 PWINO PNO $
Loading
Personal Weather Stations






























Interactive Weather Map New forecast layout! Learn more

10-Day Weather Forecast

Advertisements
Track Severe Weather on mobile